createdAt,value
2016-09-05T00:00:18.736Z,0
2016-09-05T00:01:31.005Z,0
2016-09-05T00:02:43.258Z,0
2016-09-05T00:03:55.533Z,0
2016-09-05T00:05:07.090Z,0
2016-09-05T00:06:19.342Z,0
2016-09-05T00:07:30.906Z,0
2016-09-05T00:08:42.469Z,0
2016-09-05T00:09:54.745Z,0
2016-09-05T00:11:06.318Z,0
2016-09-05T00:12:18.579Z,0
2016-09-05T00:13:29.431Z,0
2016-09-05T00:14:41.688Z,0
2016-09-05T00:15:52.549Z,0
2016-09-05T00:17:04.106Z,0
2016-09-05T00:18:16.359Z,0
2016-09-05T00:19:27.923Z,0
2016-09-05T00:20:40.188Z,0
2016-09-05T00:21:51.061Z,0
2016-09-05T00:23:02.630Z,0
2016-09-05T00:24:14.891Z,0
2016-09-05T00:25:26.448Z,0
2016-09-05T00:26:38.001Z,0
2016-09-05T00:27:50.255Z,0
2016-09-05T00:29:02.508Z,0
2016-09-05T00:30:12.656Z,0
2016-09-05T00:31:24.919Z,0
2016-09-05T00:32:36.466Z,0
2016-09-05T00:33:48.012Z,0
2016-09-05T00:35:00.278Z,0
2016-09-05T00:36:12.561Z,0
2016-09-05T00:37:24.837Z,0
2016-09-05T00:38:36.390Z,0
2016-09-05T00:39:47.240Z,0
2016-09-05T00:40:59.496Z,0
2016-09-05T00:42:11.758Z,0
2016-09-05T00:43:24.041Z,0
2016-09-05T00:44:35.607Z,0
2016-09-05T00:45:47.869Z,0
2016-09-05T00:47:00.141Z,0
2016-09-05T00:48:11.693Z,0
2016-09-05T00:49:21.854Z,0
2016-09-05T00:50:34.110Z,0
2016-09-05T00:51:46.388Z,0
2016-09-05T00:52:58.655Z,0
2016-09-05T00:54:10.211Z,0
2016-09-05T00:55:22.468Z,0
2016-09-05T00:56:34.725Z,0
2016-09-05T00:57:46.297Z,0
2016-09-05T00:58:58.558Z,0
2016-09-05T01:00:10.825Z,0
2016-09-05T01:01:22.393Z,0
2016-09-05T01:02:34.656Z,0
2016-09-05T01:03:46.931Z,0
2016-09-05T01:04:59.208Z,0
2016-09-05T01:06:10.769Z,0
2016-09-05T01:07:23.033Z,0
2016-09-05T01:08:35.293Z,0
2016-09-05T01:09:47.564Z,0
2016-09-05T01:10:59.119Z,0
2016-09-05T01:12:11.415Z,0
2016-09-05T01:13:23.681Z,0
2016-09-05T01:14:35.932Z,0
2016-09-05T01:15:48.178Z,0
2016-09-05T01:16:59.726Z,0
2016-09-05T01:18:11.992Z,0
2016-09-05T01:19:24.266Z,0
2016-09-05T01:20:35.822Z,0
2016-09-05T01:21:48.083Z,0
2016-09-05T01:22:59.646Z,0
2016-09-05T01:24:12.148Z,0
2016-09-05T01:25:23.708Z,0
2016-09-05T01:26:35.251Z,0
2016-09-05T01:27:46.106Z,0
2016-09-05T01:28:58.368Z,0
2016-09-05T01:30:09.219Z,0
2016-09-05T01:31:20.793Z,0
2016-09-05T01:32:32.358Z,0
2016-09-05T01:33:43.925Z,0
2016-09-05T01:34:54.773Z,0
2016-09-05T01:36:06.341Z,0
2016-09-05T01:37:18.606Z,0
2016-09-05T01:38:30.867Z,0
2016-09-05T01:39:43.135Z,0
2016-09-05T01:40:55.401Z,0
2016-09-05T01:42:07.663Z,0
2016-09-05T01:43:19.934Z,0
2016-09-05T01:44:32.194Z,0
2016-09-05T01:45:44.475Z,0
2016-09-05T01:46:56.030Z,0
2016-09-05T01:48:08.310Z,0
2016-09-05T01:49:20.570Z,0
2016-09-05T01:50:32.862Z,0
2016-09-05T01:51:44.426Z,0
2016-09-05T01:52:56.699Z,0
2016-09-05T01:54:08.251Z,0
2016-09-05T01:55:20.502Z,0
2016-09-05T01:56:32.769Z,0
2016-09-05T01:57:44.332Z,0
2016-09-05T01:58:56.587Z,0
2016-09-05T02:00:08.837Z,0
2016-09-05T02:01:21.111Z,0
2016-09-05T02:02:33.376Z,0
2016-09-05T02:03:45.625Z,0
2016-09-05T02:04:57.886Z,0
2016-09-05T02:06:10.145Z,0
2016-09-05T02:07:21.695Z,0
2016-09-05T02:08:33.952Z,0
2016-09-05T02:09:45.511Z,0
2016-09-05T02:10:57.086Z,0
2016-09-05T02:12:09.361Z,0
2016-09-05T02:13:20.204Z,0
2016-09-05T02:14:32.463Z,0
2016-09-05T02:15:44.033Z,0
2016-09-05T02:16:56.306Z,0
2016-09-05T02:18:08.561Z,0
2016-09-05T02:19:20.830Z,0
2016-09-05T02:20:33.103Z,0
2016-09-05T02:21:45.350Z,0
2016-09-05T02:22:56.917Z,0
2016-09-05T02:24:09.171Z,0
2016-09-05T02:25:21.430Z,0
2016-09-05T02:26:32.996Z,0
2016-09-05T02:27:45.260Z,0
2016-09-05T02:28:57.511Z,0
2016-09-05T02:30:09.774Z,0
2016-09-05T02:31:22.030Z,0
2016-09-05T02:32:33.587Z,0
2016-09-05T02:33:45.135Z,0
2016-09-05T02:34:57.390Z,0
2016-09-05T02:36:08.281Z,0
2016-09-05T02:37:19.837Z,0
2016-09-05T02:38:32.094Z,0
2016-09-05T02:39:43.647Z,0
2016-09-05T02:40:55.200Z,0
2016-09-05T02:42:05.351Z,0
2016-09-05T02:43:17.628Z,0
2016-09-05T02:44:29.178Z,0
2016-09-05T02:45:41.446Z,0
2016-09-05T02:46:53.723Z,0
2016-09-05T02:48:05.980Z,0
2016-09-05T02:49:17.543Z,0
2016-09-05T02:50:28.402Z,0
2016-09-05T02:51:39.959Z,0
2016-09-05T02:52:52.225Z,0
2016-09-05T02:54:04.507Z,0
2016-09-05T02:55:16.776Z,0
2016-09-05T02:56:29.029Z,0
2016-09-05T02:57:41.292Z,0
2016-09-05T02:58:51.437Z,0
2016-09-05T03:00:02.998Z,0
2016-09-05T03:32:11.827Z,0
2016-09-05T03:33:23.362Z,0
2016-09-05T03:34:35.628Z,0
2016-09-05T03:35:47.879Z,0
2016-09-05T03:36:59.473Z,0
2016-09-05T03:38:11.025Z,0
2016-09-05T03:39:22.575Z,0
2016-09-05T03:40:34.128Z,0
2016-09-05T03:41:46.434Z,0
2016-09-05T03:42:57.994Z,0
2016-09-05T03:44:10.253Z,0
2016-09-05T03:45:22.520Z,0
2016-09-05T03:46:34.798Z,0
2016-09-05T03:47:47.055Z,0
2016-09-05T03:48:59.320Z,0
2016-09-05T03:50:11.577Z,0
2016-09-05T03:51:23.832Z,0
2016-09-05T03:52:35.402Z,0
2016-09-05T03:53:47.665Z,0
2016-09-05T03:54:59.910Z,0
2016-09-05T03:56:11.478Z,0
2016-09-05T03:57:23.033Z,0
2016-09-05T03:58:34.580Z,0
2016-09-05T03:59:46.840Z,0
2016-09-05T04:00:58.423Z,0
2016-09-05T04:02:09.975Z,0
2016-09-05T04:03:21.537Z,0
2016-09-05T04:04:33.086Z,0
2016-09-05T04:05:45.359Z,0
2016-09-05T04:06:56.907Z,0
2016-09-05T04:08:09.172Z,0
2016-09-05T04:09:20.730Z,0
2016-09-05T04:10:32.991Z,0
2016-09-05T04:11:45.254Z,0
2016-09-05T04:12:57.516Z,0
2016-09-05T04:14:09.073Z,0
2016-09-05T04:15:21.344Z,0
2016-09-05T04:16:33.608Z,0
2016-09-05T04:17:45.868Z,0
2016-09-05T04:18:58.133Z,0
2016-09-05T04:20:10.388Z,0
2016-09-05T04:21:21.952Z,0
2016-09-05T04:22:34.209Z,0
2016-09-05T04:23:45.781Z,0
2016-09-05T04:24:58.038Z,0
2016-09-05T04:26:10.302Z,0
2016-09-05T04:27:22.572Z,0
2016-09-05T04:28:34.843Z,0
2016-09-05T04:29:47.090Z,0
2016-09-05T04:30:59.357Z,0
2016-09-05T04:32:11.640Z,0
2016-09-05T04:33:23.898Z,0
2016-09-05T04:34:35.489Z,0
2016-09-05T04:35:47.754Z,0
2016-09-05T04:37:00.012Z,0
2016-09-05T04:38:11.582Z,0
2016-09-05T04:39:23.855Z,0
2016-09-05T04:40:35.402Z,0
2016-09-05T04:41:47.668Z,0
2016-09-05T04:42:59.920Z,0
2016-09-05T04:44:12.176Z,0
2016-09-05T04:45:24.429Z,0
2016-09-05T04:46:35.989Z,0
2016-09-05T04:47:47.562Z,0
2016-09-05T04:48:57.704Z,0
2016-09-05T04:50:09.260Z,0
2016-09-05T04:51:21.527Z,0
2016-09-05T04:52:33.813Z,0
2016-09-05T04:53:46.080Z,5
2016-09-05T04:54:58.342Z,5
2016-09-05T04:56:09.913Z,5
2016-09-05T04:57:22.178Z,5
2016-09-05T04:58:33.733Z,5
2016-09-05T04:59:46.009Z,5
2016-09-05T05:00:57.582Z,5
2016-09-05T05:02:09.823Z,10
2016-09-05T05:03:21.390Z,10
2016-09-05T05:04:33.661Z,10
2016-09-05T05:05:45.928Z,10
2016-09-05T05:06:57.495Z,10
2016-09-05T05:08:09.747Z,15
2016-09-05T05:09:20.600Z,15
2016-09-05T05:10:32.855Z,15
2016-09-05T05:11:44.402Z,15
2016-09-05T05:12:56.655Z,15
2016-09-05T05:14:08.926Z,15
2016-09-05T05:15:21.204Z,15
2016-09-05T05:16:33.468Z,15
2016-09-05T05:17:45.745Z,20
2016-09-05T05:18:58.007Z,20
2016-09-05T05:20:10.274Z,20
2016-09-05T05:21:22.527Z,15
2016-09-05T05:22:34.798Z,15
2016-09-05T05:23:46.366Z,15
2016-09-05T05:24:58.632Z,15
2016-09-05T05:26:10.894Z,20
2016-09-05T05:27:22.444Z,20
2016-09-05T05:28:34.023Z,20
2016-09-05T05:29:45.579Z,20
2016-09-05T05:30:57.134Z,20
2016-09-05T05:32:09.417Z,25
2016-09-05T05:33:21.683Z,25
2016-09-05T05:34:33.951Z,25
2016-09-05T05:35:45.508Z,25
2016-09-05T05:36:57.069Z,25
2016-09-05T05:38:09.343Z,30
2016-09-05T05:39:20.899Z,35
2016-09-05T05:40:31.772Z,35
2016-09-05T05:41:44.051Z,35
2016-09-05T05:42:54.904Z,30
2016-09-05T05:44:07.155Z,30
2016-09-05T05:45:19.436Z,25
2016-09-05T05:46:31.047Z,25
2016-09-05T05:47:43.305Z,25
2016-09-05T05:48:55.572Z,25
2016-09-05T05:50:07.835Z,30
2016-09-05T05:51:20.105Z,30
2016-09-05T05:52:31.663Z,30
2016-09-05T05:53:43.913Z,25
2016-09-05T05:54:55.476Z,25
2016-09-05T05:56:07.022Z,25
2016-09-05T05:57:18.578Z,25
2016-09-05T05:58:30.831Z,30
2016-09-05T05:59:42.384Z,30
2016-09-05T06:00:53.965Z,30
2016-09-05T06:02:06.234Z,30
2016-09-05T06:03:18.492Z,35
2016-09-05T06:04:30.054Z,40
2016-09-05T06:05:42.336Z,45
2016-09-05T06:06:54.587Z,45
2016-09-05T06:08:06.833Z,45
2016-09-05T06:09:18.392Z,45
2016-09-05T06:10:30.649Z,45
2016-09-05T06:11:41.511Z,45
2016-09-05T06:12:53.787Z,45
2016-09-05T06:14:06.058Z,50
2016-09-05T06:15:18.332Z,50
2016-09-05T06:16:30.597Z,55
2016-09-05T06:17:42.868Z,55
2016-09-05T06:18:53.724Z,60
2016-09-05T06:20:05.292Z,65
2016-09-05T06:21:16.155Z,70
2016-09-05T06:22:27.708Z,70
2016-09-05T06:23:39.984Z,75
2016-09-05T06:24:51.565Z,80
2016-09-05T06:26:03.128Z,85
2016-09-05T06:27:13.994Z,85
2016-09-05T06:28:24.851Z,90
2016-09-05T06:29:36.407Z,85
2016-09-05T06:30:47.283Z,85
2016-09-05T06:31:58.846Z,85
2016-09-05T06:33:10.413Z,85
2016-09-05T06:34:21.264Z,85
2016-09-05T06:35:33.518Z,90
2016-09-05T06:36:45.073Z,95
2016-09-05T06:37:55.933Z,95
2016-09-05T06:39:07.484Z,100
2016-09-05T06:40:19.742Z,105
2016-09-05T06:41:32.013Z,110
2016-09-05T06:42:42.873Z,120
2016-09-05T06:43:55.133Z,120
2016-09-05T06:45:07.383Z,120
2016-09-05T06:46:19.651Z,125
2016-09-05T06:47:31.913Z,125
2016-09-05T06:48:42.775Z,125
2016-09-05T06:49:53.616Z,125
2016-09-05T06:51:05.192Z,125
2016-09-05T06:52:17.460Z,125
2016-09-05T06:53:29.717Z,130
2016-09-05T06:54:40.571Z,125
2016-09-05T06:55:51.439Z,120
2016-09-05T06:57:03.709Z,110
2016-09-05T06:58:15.285Z,105
2016-09-05T06:59:27.545Z,110
2016-09-05T07:00:39.812Z,110
2016-09-05T07:01:52.061Z,115
2016-09-05T07:03:03.619Z,120
2016-09-05T07:04:15.890Z,120
2016-09-05T07:05:28.160Z,125
2016-09-05T07:06:39.713Z,130
2016-09-05T07:07:51.977Z,135
2016-09-05T07:09:04.241Z,140
2016-09-05T07:10:16.526Z,150
2016-09-05T07:11:28.794Z,160
2016-09-05T07:12:40.346Z,170
2016-09-05T07:13:52.597Z,175
2016-09-05T07:15:04.863Z,185
2016-09-05T07:16:17.135Z,195
2016-09-05T07:17:28.696Z,200
2016-09-05T07:18:40.953Z,195
2016-09-05T07:19:53.214Z,195
2016-09-05T07:21:05.478Z,190
2016-09-05T07:22:17.735Z,195
2016-09-05T07:23:29.287Z,195
2016-09-05T07:24:41.544Z,195
2016-09-05T07:25:53.100Z,195
2016-09-05T07:27:05.388Z,195
2016-09-05T07:28:17.661Z,195
2016-09-05T07:29:29.929Z,195
2016-09-05T07:30:42.217Z,195
2016-09-05T07:31:53.784Z,200
2016-09-05T07:33:03.935Z,200
2016-09-05T07:34:16.189Z,200
2016-09-05T07:35:27.749Z,205
2016-09-05T07:36:39.307Z,210
2016-09-05T07:37:51.589Z,210
2016-09-05T07:39:03.864Z,210
2016-09-05T07:40:16.121Z,210
2016-09-05T07:41:28.378Z,210
2016-09-05T07:42:40.654Z,210
2016-09-05T07:43:52.918Z,210
2016-09-05T07:45:05.177Z,210
2016-09-05T07:46:16.735Z,215
2016-09-05T07:47:28.322Z,225
2016-09-05T07:48:40.583Z,240
2016-09-05T07:49:52.140Z,230
2016-09-05T07:51:04.428Z,230
2016-09-05T07:52:16.693Z,220
2016-09-05T07:53:28.265Z,205
2016-09-05T07:54:40.517Z,195
2016-09-05T07:55:52.095Z,190
2016-09-05T07:57:03.647Z,190
2016-09-05T07:58:15.197Z,175
2016-09-05T07:59:27.449Z,160
2016-09-05T08:00:39.015Z,155
2016-09-05T08:01:50.579Z,150
2016-09-05T08:03:02.843Z,150
2016-09-05T08:04:15.096Z,155
2016-09-05T08:05:25.950Z,170
2016-09-05T08:06:38.225Z,175
2016-09-05T08:07:50.492Z,180
2016-09-05T08:09:01.342Z,190
2016-09-05T08:10:12.917Z,195
2016-09-05T08:11:25.193Z,235
2016-09-05T08:12:37.470Z,250
2016-09-05T08:13:49.725Z,205
2016-09-05T08:15:01.302Z,170
2016-09-05T08:16:13.584Z,165
2016-09-05T08:17:25.841Z,175
2016-09-05T08:18:38.128Z,185
2016-09-05T08:19:48.973Z,200
2016-09-05T08:21:01.247Z,230
2016-09-05T08:22:13.514Z,220
2016-09-05T08:23:25.787Z,190
2016-09-05T08:24:35.944Z,190
2016-09-05T08:25:47.504Z,180
2016-09-05T08:26:59.069Z,165
2016-09-05T08:28:10.621Z,175
2016-09-05T08:29:22.894Z,195
2016-09-05T08:30:35.159Z,220
2016-09-05T08:31:47.444Z,205
2016-09-05T08:32:59.019Z,230
2016-09-05T08:34:11.287Z,255
2016-09-05T08:35:23.864Z,285
2016-09-05T08:36:35.421Z,245
2016-09-05T08:37:47.687Z,250
2016-09-05T08:38:58.547Z,255
2016-09-05T08:40:10.105Z,250
2016-09-05T08:41:22.372Z,250
2016-09-05T08:42:34.637Z,255
2016-09-05T08:43:46.184Z,255
2016-09-05T08:44:58.451Z,250
2016-09-05T08:46:10.025Z,250
2016-09-05T08:47:20.881Z,250
2016-09-05T08:48:33.137Z,250
2016-09-05T08:49:44.693Z,260
2016-09-05T08:50:55.571Z,325
2016-09-05T08:52:07.821Z,265
2016-09-05T08:53:20.094Z,245
2016-09-05T08:54:32.352Z,220
2016-09-05T08:55:44.623Z,215
2016-09-05T08:56:56.195Z,215
2016-09-05T08:58:08.481Z,230
2016-09-05T08:59:20.749Z,255
2016-09-05T09:00:33.024Z,245
2016-09-05T09:01:44.610Z,225
2016-09-05T09:02:56.183Z,220
2016-09-05T09:04:07.042Z,215
2016-09-05T09:05:19.310Z,210
2016-09-05T09:06:30.865Z,205
2016-09-05T09:07:43.150Z,200
2016-09-05T09:08:54.722Z,195
2016-09-05T09:10:07.005Z,190
2016-09-05T09:11:18.544Z,205
2016-09-05T09:12:28.714Z,230
2016-09-05T09:13:40.978Z,205
2016-09-05T09:14:52.545Z,275
2016-09-05T09:16:04.848Z,275
2016-09-05T09:17:16.430Z,285
2016-09-05T09:18:28.706Z,265
2016-09-05T09:19:40.974Z,240
2016-09-05T09:20:53.240Z,325
2016-09-05T09:22:03.382Z,210
2016-09-05T09:23:15.664Z,180
2016-09-05T09:24:27.941Z,160
2016-09-05T09:25:40.216Z,150
2016-09-05T09:26:51.072Z,165
2016-09-05T09:28:02.637Z,175
2016-09-05T09:29:14.202Z,260
2016-09-05T09:30:26.483Z,230
2016-09-05T09:31:38.751Z,260
2016-09-05T09:32:49.632Z,260
2016-09-05T09:34:01.930Z,265
2016-09-05T09:35:14.193Z,265
2016-09-05T09:36:26.467Z,280
2016-09-05T09:37:38.745Z,290
2016-09-05T09:38:50.309Z,295
2016-09-05T09:40:02.592Z,305
2016-09-05T09:41:14.150Z,320
2016-09-05T09:42:25.709Z,280
2016-09-05T09:43:37.981Z,275
2016-09-05T09:44:50.265Z,280
2016-09-05T09:46:02.517Z,205
2016-09-05T09:47:14.084Z,200
2016-09-05T09:48:25.652Z,215
2016-09-05T09:49:37.204Z,215
2016-09-05T09:50:49.475Z,320
2016-09-05T09:52:00.336Z,320
2016-09-05T09:53:11.908Z,230
2016-09-05T09:54:23.487Z,265
2016-09-05T09:55:35.048Z,195
2016-09-05T09:56:47.311Z,160
2016-09-05T09:57:58.889Z,225
2016-09-05T09:59:11.158Z,280
2016-09-05T10:00:23.429Z,280
2016-09-05T10:01:35.691Z,285
2016-09-05T10:02:47.965Z,270
2016-09-05T10:03:59.060Z,290
2016-09-05T10:05:10.664Z,265
2016-09-05T10:06:21.537Z,300
2016-09-05T10:07:33.803Z,285
2016-09-05T10:08:46.056Z,220
2016-09-05T10:09:57.631Z,270
2016-09-05T10:11:09.933Z,220
2016-09-05T10:12:22.201Z,330
2016-09-05T10:13:34.473Z,335
2016-09-05T10:14:46.046Z,295
2016-09-05T10:15:57.629Z,270
2016-09-05T10:17:09.185Z,270
2016-09-05T10:18:21.445Z,275
2016-09-05T10:19:33.006Z,270
2016-09-05T10:20:45.277Z,250
2016-09-05T10:21:57.545Z,360
2016-09-05T10:23:09.098Z,250
2016-09-05T10:24:21.375Z,275
2016-09-05T10:25:33.657Z,320
2016-09-05T10:26:44.522Z,310
2016-09-05T10:27:56.795Z,340
2016-09-05T10:29:09.056Z,365
2016-09-05T10:30:21.337Z,345
2016-09-05T10:31:33.610Z,345
2016-09-05T10:32:45.891Z,275
2016-09-05T10:33:57.453Z,215
2016-09-05T10:35:09.733Z,305
2016-09-05T10:36:22.019Z,285
2016-09-05T10:37:34.285Z,330
2016-09-05T10:38:45.859Z,345
2016-09-05T10:39:58.132Z,355
2016-09-05T10:41:10.400Z,270
2016-09-05T10:42:22.671Z,255
2016-09-05T10:43:34.243Z,260
2016-09-05T10:44:46.520Z,265
2016-09-05T10:45:58.105Z,255
2016-09-05T10:47:08.993Z,340
2016-09-05T10:48:21.245Z,310
2016-09-05T10:49:33.513Z,315
2016-09-05T10:50:45.794Z,245
2016-09-05T10:51:57.356Z,310
2016-09-05T10:53:09.631Z,280
2016-09-05T10:54:21.895Z,215
2016-09-05T10:55:33.471Z,290
2016-09-05T10:56:45.734Z,310
2016-09-05T10:57:58.002Z,195
2016-09-05T10:59:10.252Z,200
2016-09-05T11:00:22.524Z,295
2016-09-05T11:01:34.096Z,220
2016-09-05T11:02:46.369Z,245
2016-09-05T11:03:58.623Z,365
2016-09-05T11:05:10.226Z,370
2016-09-05T11:06:22.498Z,385
2016-09-05T11:07:34.768Z,395
2016-09-05T11:08:47.028Z,415
2016-09-05T11:09:58.597Z,435
2016-09-05T11:11:09.461Z,390
2016-09-05T11:12:21.030Z,295
2016-09-05T11:13:32.608Z,135
2016-09-05T11:14:44.858Z,80
2016-09-05T11:15:57.135Z,70
2016-09-05T11:17:09.392Z,70
2016-09-05T11:18:21.675Z,55
2016-09-05T11:19:33.942Z,55
2016-09-05T11:20:46.219Z,50
2016-09-05T11:21:58.502Z,55
2016-09-05T11:23:10.777Z,55
2016-09-05T11:24:23.053Z,60
2016-09-05T11:25:34.627Z,65
2016-09-05T11:26:46.921Z,80
2016-09-05T11:27:59.196Z,95
2016-09-05T11:29:10.755Z,110
2016-09-05T11:30:23.019Z,125
2016-09-05T11:31:35.292Z,145
2016-09-05T11:32:46.850Z,160
2016-09-05T11:33:59.118Z,180
2016-09-05T11:35:10.680Z,195
2016-09-05T11:36:20.843Z,275
2016-09-05T11:37:31.714Z,285
2016-09-05T11:38:44.015Z,210
2016-09-05T11:39:56.261Z,275
2016-09-05T11:41:08.530Z,230
2016-09-05T11:42:20.101Z,225
2016-09-05T11:43:32.374Z,230
2016-09-05T11:44:44.650Z,230
2016-09-05T11:45:56.917Z,230
2016-09-05T11:47:08.478Z,240
2016-09-05T11:48:20.080Z,355
2016-09-05T11:49:31.708Z,360
2016-09-05T11:50:43.982Z,360
2016-09-05T11:51:55.555Z,350
2016-09-05T11:53:07.823Z,335
2016-09-05T11:54:20.090Z,235
2016-09-05T11:55:32.350Z,200
2016-09-05T11:56:43.912Z,275
2016-09-05T11:57:54.080Z,230
2016-09-05T11:59:04.940Z,220
2016-09-05T12:00:16.131Z,285
2016-09-05T12:01:28.408Z,325
2016-09-05T12:02:40.671Z,355
2016-09-05T12:03:52.927Z,360
2016-09-05T12:05:03.788Z,280
2016-09-05T12:06:15.349Z,270
2016-09-05T12:07:27.632Z,255
2016-09-05T12:08:39.186Z,340
2016-09-05T12:09:50.898Z,285
2016-09-05T12:11:02.456Z,245
2016-09-05T12:12:14.030Z,225
2016-09-05T12:13:25.612Z,235
2016-09-05T12:14:37.189Z,230
2016-09-05T12:15:49.454Z,210
2016-09-05T12:17:01.741Z,185
2016-09-05T12:18:14.049Z,150
2016-09-05T12:19:25.612Z,120
2016-09-05T12:20:37.892Z,105
2016-09-05T12:21:50.165Z,95
2016-09-05T12:23:02.460Z,90
2016-09-05T12:24:14.740Z,90
2016-09-05T12:25:27.018Z,90
2016-09-05T12:26:37.873Z,80
2016-09-05T12:27:50.168Z,80
2016-09-05T12:29:01.746Z,80
2016-09-05T12:30:14.026Z,90
2016-09-05T12:31:25.598Z,115
2016-09-05T12:32:37.867Z,140
2016-09-05T12:33:48.584Z,180
2016-09-05T12:34:58.914Z,225
2016-09-05T12:36:08.904Z,305
2016-09-05T12:37:18.578Z,325
2016-09-05T12:38:28.878Z,180
2016-09-05T12:39:38.863Z,175
2016-09-05T12:40:49.163Z,180
2016-09-05T12:41:59.485Z,205
2016-09-05T12:43:09.785Z,205
2016-09-05T12:44:20.077Z,210
2016-09-05T12:45:30.371Z,205
2016-09-05T12:46:40.666Z,195
2016-09-05T12:47:50.961Z,180
2016-09-05T12:49:00.956Z,165
2016-09-05T12:50:11.300Z,125
2016-09-05T12:51:21.297Z,80
2016-09-05T12:52:31.581Z,50
2016-09-05T12:53:41.584Z,40
2016-09-05T12:54:51.883Z,45
2016-09-05T12:56:02.170Z,50
2016-09-05T12:57:12.162Z,50
2016-09-05T12:58:22.143Z,45
2016-09-05T12:59:32.449Z,35
2016-09-05T13:00:42.436Z,30
2016-09-05T13:01:52.713Z,35
2016-09-05T13:03:03.014Z,45
2016-09-05T13:04:13.336Z,55
2016-09-05T13:05:23.630Z,65
2016-09-05T13:06:33.611Z,65
2016-09-05T13:07:43.887Z,70
2016-09-05T13:08:54.181Z,80
2016-09-05T13:10:04.491Z,90
2016-09-05T13:11:14.800Z,95
2016-09-05T13:12:25.104Z,100
2016-09-05T13:13:35.414Z,100
2016-09-05T13:14:45.708Z,105
2016-09-05T13:15:55.991Z,105
2016-09-05T13:17:06.322Z,105
2016-09-05T13:18:16.003Z,110
2016-09-05T13:19:26.319Z,110
2016-09-05T13:20:36.316Z,110
2016-09-05T13:21:46.616Z,110
2016-09-05T13:22:56.609Z,105
2016-09-05T13:24:06.909Z,105
2016-09-05T13:25:17.199Z,105
2016-09-05T13:26:26.877Z,100
2016-09-05T13:27:37.192Z,100
2016-09-05T13:28:47.522Z,105
2016-09-05T13:29:57.810Z,105
2016-09-05T13:31:08.127Z,105
2016-09-05T13:32:18.439Z,110
2016-09-05T13:33:28.750Z,125
2016-09-05T13:34:39.054Z,135
2016-09-05T13:35:49.360Z,160
2016-09-05T13:36:59.635Z,155
2016-09-05T13:38:09.639Z,170
2016-09-05T13:39:19.950Z,170
2016-09-05T13:40:29.936Z,225
2016-09-05T13:41:40.239Z,225
2016-09-05T13:42:50.531Z,225
2016-09-05T13:44:00.497Z,225
2016-09-05T13:45:10.792Z,220
2016-09-05T13:46:20.785Z,220
2016-09-05T13:47:30.764Z,220
2016-09-05T13:48:41.092Z,220
2016-09-05T13:49:51.316Z,220
2016-09-05T13:51:01.611Z,220
2016-09-05T13:52:11.615Z,220
2016-09-05T13:53:21.921Z,220
2016-09-05T13:54:31.922Z,220
2016-09-05T13:55:41.910Z,220
2016-09-05T13:56:51.891Z,215
2016-09-05T13:58:02.207Z,215
2016-09-05T13:59:12.496Z,215
2016-09-05T14:00:22.793Z,215
2016-09-05T14:01:32.793Z,215
2016-09-05T14:02:43.095Z,215
2016-09-05T14:03:52.776Z,220
2016-09-05T14:05:02.786Z,220
2016-09-05T14:06:13.083Z,220
2016-09-05T14:07:23.382Z,220
2016-09-05T14:08:33.380Z,225
2016-09-05T14:09:43.675Z,225
2016-09-05T14:10:53.897Z,230
2016-09-05T14:12:03.879Z,235
2016-09-05T14:13:14.193Z,240
2016-09-05T14:14:24.182Z,250
2016-09-05T14:15:34.492Z,255
2016-09-05T14:16:44.795Z,265
2016-09-05T14:17:54.778Z,220
2016-09-05T14:19:05.094Z,275
2016-09-05T14:20:15.411Z,285
2016-09-05T14:21:25.403Z,295
2016-09-05T14:22:35.698Z,305
2016-09-05T14:23:45.733Z,320
2016-09-05T14:24:56.035Z,330
2016-09-05T14:26:06.330Z,330
2016-09-05T14:27:16.336Z,335
2016-09-05T14:28:26.636Z,335
2016-09-05T14:29:36.611Z,325
2016-09-05T14:30:46.921Z,310
2016-09-05T14:31:57.222Z,315
2016-09-05T14:33:07.229Z,255
2016-09-05T14:34:17.536Z,235
2016-09-05T14:35:27.847Z,225
2016-09-05T14:36:38.138Z,225
2016-09-05T14:37:48.116Z,220
2016-09-05T14:38:58.651Z,210
2016-09-05T14:40:08.674Z,205
2016-09-05T14:41:18.997Z,185
2016-09-05T14:42:29.303Z,185
2016-09-05T14:43:39.636Z,165
2016-09-05T14:44:49.634Z,110
2016-09-05T14:45:59.935Z,65
2016-09-05T14:47:09.965Z,50
2016-09-05T14:48:20.276Z,45
2016-09-05T14:49:30.588Z,40
2016-09-05T14:50:40.871Z,35
2016-09-05T14:51:50.914Z,35
2016-09-05T14:53:01.210Z,40
2016-09-05T14:54:10.874Z,50
2016-09-05T14:55:21.171Z,45
2016-09-05T14:56:31.460Z,60
2016-09-05T14:57:41.459Z,85
2016-09-05T14:58:51.743Z,115
2016-09-05T15:00:01.720Z,125
2016-09-05T15:01:12.042Z,130
2016-09-05T15:02:22.062Z,135
2016-09-05T15:03:32.357Z,120
2016-09-05T15:04:42.366Z,120
2016-09-05T15:05:52.679Z,115
2016-09-05T15:07:02.978Z,110
2016-09-05T15:08:12.966Z,110
2016-09-05T15:09:23.257Z,115
2016-09-05T15:10:33.247Z,115
2016-09-05T15:11:43.551Z,120
2016-09-05T15:12:53.543Z,155
2016-09-05T15:14:03.844Z,130
2016-09-05T15:15:14.138Z,125
2016-09-05T15:16:24.420Z,115
2016-09-05T15:17:34.702Z,105
2016-09-05T15:18:45.018Z,95
2016-09-05T15:19:55.009Z,95
2016-09-05T15:21:05.298Z,100
2016-09-05T15:22:15.607Z,110
2016-09-05T15:23:25.604Z,110
2016-09-05T15:24:35.601Z,110
2016-09-05T15:25:45.898Z,100
2016-09-05T15:26:56.222Z,85
2016-09-05T15:28:06.217Z,75
2016-09-05T15:29:16.516Z,65
2016-09-05T15:30:26.816Z,60
2016-09-05T15:31:36.817Z,55
2016-09-05T15:32:46.819Z,65
2016-09-05T15:33:56.804Z,85
2016-09-05T15:35:06.795Z,70
2016-09-05T15:36:16.391Z,55
2016-09-05T15:37:26.080Z,45
2016-09-05T15:38:36.391Z,50
2016-09-05T15:39:46.087Z,55
2016-09-05T15:40:56.380Z,60
2016-09-05T15:42:06.367Z,75
2016-09-05T15:43:16.655Z,85
2016-09-05T15:44:26.945Z,80
2016-09-05T15:45:37.242Z,65
2016-09-05T15:46:47.531Z,55
2016-09-05T15:47:57.850Z,45
2016-09-05T15:49:07.851Z,40
2016-09-05T15:50:18.154Z,40
2016-09-05T15:51:28.450Z,35
2016-09-05T15:52:38.428Z,50
2016-09-05T15:53:48.723Z,90
2016-09-05T15:54:58.941Z,115
2016-09-05T15:56:08.922Z,125
2016-09-05T15:57:18.908Z,125
2016-09-05T15:58:28.895Z,125
2016-09-05T15:59:39.192Z,125
2016-09-05T16:00:49.494Z,125
2016-09-05T16:01:59.796Z,120
2016-09-05T16:03:10.090Z,115
2016-09-05T16:04:20.089Z,110
2016-09-05T16:05:30.385Z,105
2016-09-05T16:06:40.705Z,95
2016-09-05T16:07:51.005Z,85
2016-09-05T16:09:00.980Z,75
2016-09-05T16:10:11.280Z,65
2016-09-05T16:11:21.584Z,55
2016-09-05T16:12:31.881Z,50
2016-09-05T16:13:41.877Z,45
2016-09-05T16:14:51.235Z,40
2016-09-05T16:16:01.206Z,40
2016-09-05T16:17:11.514Z,40
2016-09-05T16:18:21.820Z,40
2016-09-05T16:19:32.137Z,45
2016-09-05T16:20:42.438Z,45
2016-09-05T16:21:52.740Z,55
2016-09-05T16:23:03.028Z,60
2016-09-05T16:24:13.335Z,65
2016-09-05T16:25:23.324Z,65
2016-09-05T16:26:33.623Z,65
2016-09-05T16:27:43.933Z,60
2016-09-05T16:28:54.269Z,50
2016-09-05T16:30:04.557Z,45
2016-09-05T16:31:14.875Z,40
2016-09-05T16:32:25.162Z,30
2016-09-05T16:33:35.463Z,25
2016-09-05T16:34:45.765Z,20
2016-09-05T16:35:56.086Z,15
2016-09-05T16:37:05.763Z,15
2016-09-05T16:38:16.060Z,15
2016-09-05T16:39:26.364Z,20
2016-09-05T16:40:36.664Z,20
2016-09-05T16:41:46.965Z,20
2016-09-05T16:42:57.262Z,20
2016-09-05T16:44:06.942Z,20
2016-09-05T16:45:16.931Z,25
2016-09-05T16:46:27.232Z,25
2016-09-05T16:47:37.578Z,25
2016-09-05T16:48:47.582Z,25
2016-09-05T16:49:57.892Z,25
2016-09-05T16:51:08.211Z,30
2016-09-05T16:52:18.503Z,30
2016-09-05T16:53:28.542Z,30
2016-09-05T16:54:38.534Z,30
2016-09-05T16:55:48.853Z,30
2016-09-05T16:56:59.138Z,30
2016-09-05T16:58:09.455Z,30
2016-09-05T16:59:19.789Z,25
2016-09-05T17:00:30.068Z,25
2016-09-05T17:01:39.753Z,20
2016-09-05T17:02:50.057Z,20
2016-09-05T17:04:00.353Z,20
2016-09-05T17:05:10.329Z,15
2016-09-05T17:06:20.321Z,15
2016-09-05T17:07:30.621Z,15
2016-09-05T17:08:40.919Z,10
2016-09-05T17:09:50.922Z,10
2016-09-05T17:11:00.910Z,10
2016-09-05T17:12:10.900Z,10
2016-09-05T17:13:21.177Z,10
2016-09-05T17:14:31.464Z,10
2016-09-05T17:15:41.451Z,10
2016-09-05T17:16:51.752Z,10
2016-09-05T17:18:01.474Z,5
2016-09-05T17:19:11.757Z,5
2016-09-05T17:20:21.743Z,5
2016-09-05T17:21:31.734Z,5